createdAt,value
2022-09-17T00:01:43.810Z,26.20
2022-09-17T00:04:12.579Z,30.42
2022-09-17T00:06:41.294Z,21.95
2022-09-17T00:09:11.657Z,27.27
2022-09-17T00:11:42.414Z,26.67
2022-09-17T00:14:15.877Z,24.02
2022-09-17T00:16:46.728Z,23.73
2022-09-17T00:19:17.582Z,21.40
2022-09-17T00:21:46.554Z,28.52
2022-09-17T00:24:17.451Z,26.10
2022-09-17T00:26:46.074Z,25.17
2022-09-17T00:29:14.531Z,21.73
2022-09-17T00:31:43.989Z,21.83
2022-09-17T00:34:12.632Z,17.77
2022-09-17T00:36:41.227Z,31.88
2022-09-17T00:39:11.559Z,40.40
2022-09-17T00:41:41.518Z,32.15
2022-09-17T00:44:43.572Z,33.35
2022-09-17T00:47:28.413Z,28.55
2022-09-17T00:50:01.377Z,24.35
2022-09-17T00:52:34.760Z,28.30
2022-09-17T00:55:11.119Z,25.85
2022-09-17T00:57:41.871Z,27.40
2022-09-17T01:00:11.953Z,27.80
2022-09-17T01:02:41.154Z,19.95
2022-09-17T01:05:11.375Z,19.38
2022-09-17T01:08:02.938Z,23.58
2022-09-17T01:10:58.536Z,20.05
2022-09-17T01:13:43.259Z,26.10
2022-09-17T01:16:19.725Z,18.17
2022-09-17T01:19:04.374Z,21.50
2022-09-17T01:21:40.421Z,19.98
2022-09-17T01:24:48.618Z,20.85
2022-09-17T01:27:45.760Z,18.70
2022-09-17T01:30:23.116Z,17.63
2022-09-17T01:32:57.273Z,17.27
2022-09-17T01:35:36.116Z,23.90
2022-09-17T01:38:13.306Z,18.08
2022-09-17T01:40:51.071Z,16.92
2022-09-17T01:43:26.015Z,23.27
2022-09-17T01:45:58.924Z,15.02
2022-09-17T01:48:33.336Z,16.65
2022-09-17T01:51:08.071Z,13.75
2022-09-17T01:53:42.812Z,15.30
2022-09-17T01:56:14.705Z,13.90
2022-09-17T01:58:47.322Z,22.10
2022-09-17T02:01:20.008Z,17.63
2022-09-17T02:03:56.226Z,17.35
2022-09-17T02:06:30.001Z,15.95
2022-09-17T02:09:03.037Z,17.50
2022-09-17T02:11:34.014Z,13.98
2022-09-17T02:14:07.423Z,14.70
2022-09-17T02:16:38.396Z,18.65
2022-09-17T02:19:15.622Z,23.08
2022-09-17T02:21:48.422Z,18.85
2022-09-17T02:24:21.185Z,25.10
2022-09-17T02:26:56.264Z,18.10
2022-09-17T02:29:30.981Z,18.70
2022-09-17T02:31:59.705Z,21.95
2022-09-17T02:34:30.827Z,18.25
2022-09-17T02:37:00.478Z,19.13
2022-09-17T02:39:29.685Z,22.25
2022-09-17T02:42:06.653Z,24.52
2022-09-17T02:44:46.262Z,22.50
2022-09-17T02:47:56.788Z,17.48
2022-09-17T02:50:39.279Z,19.95
2022-09-17T02:53:21.053Z,16.17
2022-09-17T02:56:01.213Z,18.83
2022-09-17T02:58:35.446Z,17.85
2022-09-17T03:01:14.015Z,16.83
2022-09-17T03:03:45.687Z,14.02
2022-09-17T03:06:15.678Z,15.80
2022-09-17T03:08:45.128Z,17.02
2022-09-17T03:11:14.189Z,19.83
2022-09-17T03:13:42.754Z,17.90
2022-09-17T03:16:11.356Z,20.30
2022-09-17T03:18:39.858Z,16.75
2022-09-17T03:21:08.276Z,23.77
2022-09-17T03:23:38.285Z,18.83
2022-09-17T03:26:06.970Z,17.55
2022-09-17T03:28:35.439Z,22.08
2022-09-17T03:31:04.400Z,15.75
2022-09-17T03:33:32.955Z,18.23
2022-09-17T03:36:01.488Z,13.77
2022-09-17T03:38:29.955Z,16.73
2022-09-17T03:41:00.844Z,19.45
2022-09-17T03:43:30.014Z,17.77
2022-09-17T03:45:58.452Z,22.30
2022-09-17T03:48:27.302Z,24.13
2022-09-17T03:50:55.710Z,24.95
2022-09-17T03:53:24.763Z,18.55
2022-09-17T03:55:53.211Z,18.95
2022-09-17T03:58:23.955Z,19.52
2022-09-17T04:04:02.798Z,15.20
2022-09-17T04:06:31.634Z,15.90
2022-09-17T04:09:01.046Z,13.25
2022-09-17T04:11:30.113Z,14.98
2022-09-17T04:14:00.038Z,16.08
2022-09-17T04:16:28.567Z,15.70
2022-09-17T04:18:57.141Z,17.55
2022-09-17T04:21:25.641Z,13.38
2022-09-17T04:23:54.056Z,15.48
2022-09-17T04:26:22.562Z,21.27
2022-09-17T04:28:50.977Z,17.83
2022-09-17T04:31:22.774Z,15.80
2022-09-17T04:33:51.276Z,16.65
2022-09-17T04:36:19.768Z,16.33
2022-09-17T04:38:50.034Z,22.83
2022-09-17T04:41:18.489Z,19.50
2022-09-17T04:43:47.084Z,21.90
2022-09-17T04:46:17.011Z,17.25
2022-09-17T04:48:47.576Z,19.52
2022-09-17T04:51:16.037Z,22.27
2022-09-17T04:53:45.746Z,16.60
2022-09-17T04:56:14.199Z,23.35
2022-09-17T04:58:42.698Z,19.00
2022-09-17T05:01:11.236Z,23.40
2022-09-17T05:03:39.724Z,22.98
2022-09-17T05:06:09.651Z,14.50
2022-09-17T05:08:38.217Z,16.77
2022-09-17T05:11:06.834Z,16.92
2022-09-17T05:13:35.254Z,19.10
2022-09-17T05:16:04.241Z,16.38
2022-09-17T05:18:32.735Z,17.20
2022-09-17T05:21:01.170Z,16.05
2022-09-17T05:23:31.369Z,23.23
2022-09-17T05:26:00.552Z,16.95
2022-09-17T05:28:29.578Z,17.25
2022-09-17T05:31:00.748Z,19.45
2022-09-17T05:33:29.437Z,20.98
2022-09-17T05:35:58.044Z,16.92
2022-09-17T05:38:26.974Z,20.63
2022-09-17T05:40:56.834Z,21.60
2022-09-17T05:43:25.379Z,19.50
2022-09-17T05:45:54.809Z,18.10
2022-09-17T05:48:23.247Z,21.30
2022-09-17T05:50:51.710Z,21.45
2022-09-17T05:53:20.589Z,17.02
2022-09-17T05:55:49.472Z,19.92
2022-09-17T05:58:20.907Z,26.42
2022-09-17T06:00:49.476Z,18.00
2022-09-17T06:03:20.072Z,19.20
2022-09-17T06:05:55.709Z,17.42
2022-09-17T06:08:24.500Z,14.73
2022-09-17T06:10:52.954Z,20.02
2022-09-17T06:13:23.056Z,15.40
2022-09-17T06:15:52.471Z,14.45
2022-09-17T06:18:21.533Z,16.85
2022-09-17T06:20:56.374Z,19.85
2022-09-17T06:23:25.361Z,17.52
2022-09-17T06:25:55.999Z,16.65
2022-09-17T06:28:26.659Z,19.00
2022-09-17T06:30:57.396Z,21.30
2022-09-17T06:33:26.931Z,18.75
2022-09-17T06:36:00.398Z,16.38
2022-09-17T06:38:29.453Z,17.77
2022-09-17T06:40:58.134Z,16.65
2022-09-17T06:43:28.426Z,14.35
2022-09-17T06:45:58.030Z,13.73
2022-09-17T06:48:27.511Z,12.77
2022-09-17T06:50:57.019Z,16.02
2022-09-17T06:53:26.340Z,10.27
2022-09-17T06:56:01.244Z,14.43
2022-09-17T06:58:33.919Z,13.95
2022-09-17T07:01:03.098Z,12.15
2022-09-17T07:03:32.829Z,9.65
2022-09-17T07:06:01.361Z,11.00
2022-09-17T07:08:30.060Z,16.25
2022-09-17T07:10:59.117Z,13.93
2022-09-17T07:13:28.193Z,15.70
2022-09-17T07:15:59.312Z,14.48
2022-09-17T07:18:28.522Z,14.35
2022-09-17T07:20:58.227Z,10.82
2022-09-17T07:23:28.300Z,10.93
2022-09-17T07:25:58.048Z,17.45
2022-09-17T07:28:27.263Z,11.13
2022-09-17T07:30:58.038Z,8.13
2022-09-17T07:33:28.086Z,10.18
2022-09-17T07:35:57.729Z,9.50
2022-09-17T07:38:27.165Z,9.88
2022-09-17T07:41:00.197Z,9.90
2022-09-17T07:43:30.149Z,7.95
2022-09-17T07:46:01.817Z,5.68
2022-09-17T07:48:30.442Z,7.30
2022-09-17T07:50:59.486Z,5.80
2022-09-17T07:53:28.878Z,11.80
2022-09-17T07:55:59.501Z,7.20
2022-09-17T07:58:31.434Z,12.85
2022-09-17T08:01:05.442Z,6.72
2022-09-17T08:03:34.376Z,5.85
2022-09-17T08:06:05.237Z,6.70
2022-09-17T08:08:34.775Z,4.43
2022-09-17T08:11:03.939Z,6.78
2022-09-17T08:13:32.838Z,4.18
2022-09-17T08:16:06.220Z,5.43
2022-09-17T08:18:35.909Z,6.80
2022-09-17T08:21:05.756Z,4.07
2022-09-17T08:23:37.037Z,5.18
2022-09-17T08:26:08.612Z,5.70
2022-09-17T08:28:37.249Z,5.97
2022-09-17T08:31:09.834Z,5.82
2022-09-17T08:33:40.444Z,3.55
2022-09-17T08:36:11.625Z,7.03
2022-09-17T08:38:40.652Z,5.20
2022-09-17T08:41:23.272Z,3.72
2022-09-17T08:44:00.750Z,4.68
2022-09-17T08:46:34.798Z,4.40
2022-09-17T08:49:12.455Z,6.30
2022-09-17T08:51:54.414Z,6.28
2022-09-17T08:54:30.698Z,4.32
2022-09-17T08:57:10.702Z,3.58
2022-09-17T08:59:44.707Z,7.93
2022-09-17T09:02:29.798Z,3.00
2022-09-17T09:05:10.061Z,3.25
2022-09-17T09:07:43.579Z,6.03
2022-09-17T09:10:22.595Z,7.72
2022-09-17T09:12:52.646Z,3.03
2022-09-17T09:15:33.178Z,7.72
2022-09-17T09:18:11.687Z,4.20
2022-09-17T09:20:50.348Z,3.33
2022-09-17T09:23:22.385Z,4.35
2022-09-17T09:25:56.708Z,3.95
2022-09-17T09:28:44.156Z,4.00
2022-09-17T09:31:28.996Z,3.33
2022-09-17T09:33:59.794Z,5.28
2022-09-17T09:36:31.106Z,3.20
2022-09-17T09:39:03.195Z,5.45
2022-09-17T09:41:37.748Z,4.85
2022-09-17T09:44:10.777Z,3.97
2022-09-17T09:47:26.758Z,2.85
2022-09-17T09:50:19.116Z,3.17
2022-09-17T09:53:00.874Z,3.60
2022-09-17T09:55:49.573Z,2.25
2022-09-17T09:58:26.115Z,4.45
2022-09-17T10:00:54.656Z,2.75
2022-09-17T10:03:24.756Z,6.72
2022-09-17T10:05:59.753Z,4.35
2022-09-17T10:08:30.357Z,6.30
2022-09-17T10:11:01.842Z,5.18
2022-09-17T10:13:33.008Z,9.48
2022-09-17T10:16:18.427Z,3.95
2022-09-17T10:18:47.951Z,6.32
2022-09-17T10:21:31.669Z,3.70
2022-09-17T10:24:02.804Z,4.45
2022-09-17T10:26:33.638Z,4.18
2022-09-17T10:29:04.517Z,3.92
2022-09-17T10:31:48.686Z,3.35
2022-09-17T10:34:22.573Z,2.92
2022-09-17T10:36:53.299Z,3.90
2022-09-17T10:39:44.429Z,2.50
2022-09-17T10:42:16.503Z,4.05
2022-09-17T10:44:53.182Z,4.55
2022-09-17T10:47:25.703Z,4.63
2022-09-17T10:49:57.949Z,4.80
2022-09-17T10:52:32.429Z,6.30
2022-09-17T10:55:30.085Z,3.78
2022-09-17T10:58:18.335Z,3.95
2022-09-17T11:01:01.671Z,7.00
2022-09-17T11:04:04.787Z,4.75
2022-09-17T11:07:00.418Z,4.70
2022-09-17T11:09:43.754Z,3.33
2022-09-17T11:12:24.247Z,5.95
2022-09-17T11:15:00.268Z,6.50
2022-09-17T11:17:51.178Z,4.50
2022-09-17T11:20:31.061Z,4.55
2022-09-17T11:23:09.313Z,3.22
2022-09-17T11:25:50.379Z,2.65
2022-09-17T11:28:36.854Z,2.95
2022-09-17T11:31:23.835Z,3.08
2022-09-17T11:34:24.166Z,4.15
2022-09-17T11:36:58.750Z,5.05
2022-09-17T11:39:34.333Z,4.82
2022-09-17T11:42:09.336Z,4.88
2022-09-17T11:44:46.569Z,7.70
2022-09-17T11:47:19.110Z,3.88
2022-09-17T11:49:52.601Z,3.50
2022-09-17T11:52:25.597Z,3.42
2022-09-17T11:54:59.966Z,4.82
2022-09-17T11:57:35.056Z,2.80
2022-09-17T12:00:08.752Z,3.40
2022-09-17T12:02:51.718Z,4.53
2022-09-17T12:05:23.902Z,3.90
2022-09-17T12:07:57.868Z,3.50
2022-09-17T12:10:37.808Z,3.92
2022-09-17T12:13:17.761Z,3.67
2022-09-17T12:15:53.159Z,3.47
2022-09-17T12:18:34.047Z,6.18
2022-09-17T12:21:06.357Z,7.57
2022-09-17T12:23:40.412Z,3.75
2022-09-17T12:26:22.414Z,4.68
2022-09-17T12:29:00.955Z,4.57
2022-09-17T12:31:38.030Z,6.68
2022-09-17T12:34:21.958Z,3.45
2022-09-17T12:36:59.553Z,2.90
2022-09-17T12:39:46.163Z,4.82
2022-09-17T12:42:28.052Z,2.88
2022-09-17T12:45:10.229Z,4.25
2022-09-17T12:47:56.588Z,4.03
2022-09-17T12:50:36.505Z,3.33
2022-09-17T12:53:17.296Z,5.40
2022-09-17T12:55:59.544Z,5.40
2022-09-17T12:58:43.922Z,4.68
2022-09-17T13:01:23.419Z,4.22
2022-09-17T13:03:58.582Z,5.10
2022-09-17T13:07:07.507Z,2.85
2022-09-17T13:10:03.020Z,5.57
2022-09-17T13:12:42.526Z,2.33
2022-09-17T13:15:52.434Z,2.67
2022-09-17T13:18:30.926Z,5.22
2022-09-17T13:21:08.606Z,3.28
2022-09-17T13:23:41.768Z,7.28
2022-09-17T13:26:12.039Z,4.07
2022-09-17T13:29:00.336Z,2.30
2022-09-17T13:31:51.027Z,4.97
2022-09-17T13:34:32.411Z,4.85
2022-09-17T13:37:02.422Z,2.00
2022-09-17T13:39:44.351Z,5.28
2022-09-17T13:42:22.103Z,2.15
2022-09-17T13:45:03.592Z,6.03
2022-09-17T13:47:33.621Z,6.20
2022-09-17T13:50:08.095Z,4.20
2022-09-17T13:52:41.307Z,2.95
2022-09-17T13:55:31.026Z,6.70
2022-09-17T13:57:59.773Z,5.55
2022-09-17T14:00:51.848Z,6.72
2022-09-17T14:03:49.417Z,2.33
2022-09-17T14:06:53.870Z,4.07
2022-09-17T14:09:53.748Z,4.93
2022-09-17T14:12:52.582Z,6.20
2022-09-17T14:16:02.308Z,2.10
2022-09-17T14:18:44.741Z,4.70
2022-09-17T14:21:20.385Z,5.30
2022-09-17T14:23:56.578Z,3.90
2022-09-17T14:26:55.421Z,4.63
2022-09-17T14:30:02.052Z,4.43
2022-09-17T14:32:34.322Z,8.20
2022-09-17T14:35:19.227Z,2.72
2022-09-17T14:37:56.355Z,3.70
2022-09-17T14:40:28.378Z,4.75
2022-09-17T14:42:58.750Z,3.20
2022-09-17T14:45:30.952Z,3.45
2022-09-17T14:48:31.510Z,6.20
2022-09-17T14:51:33.032Z,5.22
2022-09-17T14:54:17.195Z,4.18
2022-09-17T14:57:02.681Z,4.03
2022-09-17T14:59:43.049Z,8.07
2022-09-17T15:02:30.433Z,3.15
2022-09-17T15:04:59.288Z,2.88
2022-09-17T15:07:28.317Z,4.60
2022-09-17T15:10:08.195Z,2.35
2022-09-17T15:12:42.603Z,4.40
2022-09-17T15:15:19.539Z,2.22
2022-09-17T15:17:49.926Z,3.67
2022-09-17T15:20:22.148Z,5.50
2022-09-17T15:22:57.906Z,5.60
2022-09-17T15:25:30.859Z,3.08
2022-09-17T15:28:06.337Z,4.25
2022-09-17T15:30:34.864Z,4.95
2022-09-17T15:33:03.530Z,5.50
2022-09-17T15:35:33.513Z,5.07
2022-09-17T15:38:22.161Z,4.20
2022-09-17T15:40:52.072Z,3.70
2022-09-17T15:43:27.646Z,4.60
2022-09-17T15:45:58.233Z,3.15
2022-09-17T15:48:37.839Z,3.75
2022-09-17T15:51:14.814Z,4.70
2022-09-17T15:53:53.382Z,3.00
2022-09-17T15:56:24.842Z,3.20
2022-09-17T15:58:57.728Z,2.40
2022-09-17T16:01:55.971Z,5.18
2022-09-17T16:04:33.200Z,2.72
2022-09-17T16:07:28.076Z,3.45
2022-09-17T16:09:59.417Z,4.60
2022-09-17T16:12:30.066Z,2.67
2022-09-17T16:15:01.721Z,4.00
2022-09-17T16:17:36.790Z,3.42
2022-09-17T16:20:11.272Z,6.82
2022-09-17T16:22:40.297Z,7.78
2022-09-17T16:25:09.704Z,3.97
2022-09-17T16:27:46.790Z,2.25
2022-09-17T16:30:19.249Z,3.10
2022-09-17T16:32:48.268Z,3.03
2022-09-17T16:35:18.982Z,3.55
2022-09-17T16:37:50.477Z,4.13
2022-09-17T16:40:19.460Z,4.10
2022-09-17T16:42:48.387Z,3.97
2022-09-17T16:45:18.405Z,2.80
2022-09-17T16:47:46.832Z,2.65
2022-09-17T16:50:17.327Z,3.83
2022-09-17T16:52:46.138Z,3.47
2022-09-17T16:55:16.518Z,3.45
2022-09-17T16:57:45.230Z,5.40
2022-09-17T17:00:17.170Z,5.13
2022-09-17T17:02:53.711Z,3.35
2022-09-17T17:05:22.370Z,3.08
2022-09-17T17:07:51.081Z,4.80
2022-09-17T17:10:20.407Z,3.78
2022-09-17T17:12:49.061Z,2.90
2022-09-17T17:15:17.522Z,3.13
2022-09-17T17:17:47.358Z,4.43
2022-09-17T17:20:16.980Z,4.65
2022-09-17T17:22:46.119Z,4.97
2022-09-17T17:25:16.069Z,3.28
2022-09-17T17:27:45.515Z,3.63
2022-09-17T17:30:17.512Z,3.33
2022-09-17T17:32:51.477Z,3.22
2022-09-17T17:35:20.302Z,3.85
2022-09-17T17:37:48.859Z,3.88
2022-09-17T17:40:17.777Z,3.45
2022-09-17T17:42:47.598Z,2.92
2022-09-17T17:45:16.327Z,5.53
2022-09-17T17:47:44.930Z,3.45
2022-09-17T17:50:16.010Z,4.47
2022-09-17T17:52:48.277Z,3.47
2022-09-17T17:55:17.390Z,3.85
2022-09-17T17:57:45.809Z,3.60
2022-09-17T18:00:16.681Z,7.43
2022-09-17T18:02:45.273Z,5.05
2022-09-17T18:05:15.272Z,4.22
2022-09-17T18:07:43.984Z,7.25
2022-09-17T18:10:13.226Z,4.80
2022-09-17T18:12:50.154Z,7.00
2022-09-17T18:15:18.761Z,6.13
2022-09-17T18:17:50.129Z,5.97
2022-09-17T18:20:22.798Z,4.60
2022-09-17T18:22:51.288Z,5.20
2022-09-17T18:25:19.913Z,4.38
2022-09-17T18:27:48.512Z,6.88
2022-09-17T18:30:17.381Z,8.23
2022-09-17T18:32:49.103Z,7.03
2022-09-17T18:35:20.149Z,6.15
2022-09-17T18:37:50.015Z,7.90
2022-09-17T18:40:18.614Z,4.72
2022-09-17T18:42:49.920Z,6.57
2022-09-17T18:45:18.518Z,4.78
2022-09-17T18:47:46.949Z,5.45
2022-09-17T18:50:15.773Z,7.63
2022-09-17T18:52:44.234Z,11.10
2022-09-17T18:55:14.112Z,9.90
2022-09-17T18:57:42.940Z,15.43
2022-09-17T19:00:12.403Z,10.45
2022-09-17T19:02:40.834Z,6.47
2022-09-17T19:05:09.959Z,11.52
2022-09-17T19:07:38.442Z,5.65
2022-09-17T19:10:07.666Z,7.43
2022-09-17T19:12:38.188Z,9.27
2022-09-17T19:15:09.816Z,9.02
2022-09-17T19:17:38.382Z,7.88
2022-09-17T19:20:07.749Z,7.00
2022-09-17T19:22:36.237Z,10.38
2022-09-17T19:25:05.177Z,10.23
2022-09-17T19:27:33.672Z,8.48
2022-09-17T19:30:03.566Z,9.93
2022-09-17T19:32:33.073Z,11.70
2022-09-17T19:35:01.636Z,9.63
2022-09-17T19:37:30.141Z,9.13
2022-09-17T19:39:58.753Z,9.32
2022-09-17T19:42:27.297Z,10.18
2022-09-17T19:44:55.778Z,13.90
2022-09-17T19:47:25.796Z,9.63
2022-09-17T19:49:54.370Z,10.45
2022-09-17T19:52:23.025Z,20.25
2022-09-17T19:54:51.621Z,20.15
2022-09-17T19:57:20.665Z,15.50
2022-09-17T19:59:49.203Z,18.00
2022-09-17T20:02:18.223Z,20.88
2022-09-17T20:04:48.175Z,18.15
2022-09-17T20:07:16.678Z,21.60
2022-09-17T20:09:46.205Z,16.85
2022-09-17T20:12:14.686Z,17.45
2022-09-17T20:14:43.365Z,15.57
2022-09-17T20:17:13.348Z,11.73
2022-09-17T20:19:42.161Z,14.43
2022-09-17T20:22:12.046Z,15.85
2022-09-17T20:24:40.881Z,12.73
2022-09-17T20:27:09.379Z,12.05
2022-09-17T20:29:37.885Z,15.20
2022-09-17T20:32:06.586Z,14.57
2022-09-17T20:34:35.088Z,16.48
2022-09-17T20:37:13.017Z,15.55
2022-09-17T20:39:43.938Z,21.27
2022-09-17T20:42:12.449Z,13.43
2022-09-17T20:44:40.958Z,14.68
2022-09-17T20:47:09.548Z,12.05
2022-09-17T20:49:38.062Z,12.48
2022-09-17T20:52:07.053Z,12.65
2022-09-17T20:54:35.671Z,10.82
2022-09-17T20:57:05.598Z,13.10
2022-09-17T20:59:51.008Z,11.50
2022-09-17T21:02:21.177Z,14.25
2022-09-17T21:04:51.453Z,11.50
2022-09-17T21:07:19.949Z,14.20
2022-09-17T21:09:48.500Z,12.63
2022-09-17T21:12:18.474Z,8.95
2022-09-17T21:14:47.017Z,15.93
2022-09-17T21:17:15.797Z,14.40
2022-09-17T21:19:44.307Z,14.18
2022-09-17T21:22:12.825Z,11.65
2022-09-17T21:24:41.319Z,9.77
2022-09-17T21:27:10.084Z,11.30
2022-09-17T21:29:39.992Z,8.85
2022-09-17T21:32:08.501Z,12.55
2022-09-17T21:34:37.117Z,14.40
2022-09-17T21:37:05.721Z,8.13
2022-09-17T21:39:37.210Z,11.02
2022-09-17T21:42:05.877Z,9.70
2022-09-17T21:44:34.388Z,11.52
2022-09-17T21:47:05.436Z,9.95
2022-09-17T21:49:36.500Z,14.63
2022-09-17T21:52:05.017Z,11.68
2022-09-17T21:54:33.694Z,11.43
2022-09-17T21:57:02.163Z,7.20
2022-09-17T21:59:30.764Z,9.27
2022-09-17T22:01:59.371Z,12.40
2022-09-17T22:04:29.295Z,13.70
2022-09-17T22:06:58.063Z,12.55
2022-09-17T22:09:27.617Z,13.70
2022-09-17T22:11:56.109Z,11.45
2022-09-17T22:14:26.058Z,13.10
2022-09-17T22:16:57.259Z,18.77
2022-09-17T22:19:26.584Z,11.68
2022-09-17T22:21:57.429Z,15.52
2022-09-17T22:24:26.807Z,16.40
2022-09-17T22:26:58.164Z,13.38
2022-09-17T22:29:28.604Z,8.88
2022-09-17T22:31:57.438Z,10.85
2022-09-17T22:34:26.847Z,18.77
2022-09-17T22:36:56.857Z,12.07
2022-09-17T22:39:25.329Z,11.02
2022-09-17T22:41:54.819Z,13.20
2022-09-17T22:44:23.740Z,9.23
2022-09-17T22:46:53.081Z,10.32
2022-09-17T22:49:21.804Z,10.68
2022-09-17T22:51:50.309Z,11.43
2022-09-17T22:54:20.294Z,16.85
2022-09-17T22:56:49.772Z,10.75
2022-09-17T22:59:19.310Z,13.40
2022-09-17T23:01:47.924Z,12.55
2022-09-17T23:04:16.529Z,10.15
2022-09-17T23:06:45.019Z,8.05
2022-09-17T23:09:14.609Z,14.20
2022-09-17T23:11:47.108Z,12.27
2022-09-17T23:14:17.775Z,15.45
2022-09-17T23:16:48.694Z,11.35
2022-09-17T23:19:18.076Z,15.10
2022-09-17T23:21:46.960Z,11.63
2022-09-17T23:24:20.418Z,12.75
2022-09-17T23:26:51.270Z,8.63
2022-09-17T23:29:20.092Z,9.38
2022-09-17T23:31:48.592Z,13.75
2022-09-17T23:34:17.086Z,13.90
2022-09-17T23:36:45.568Z,11.60
2022-09-17T23:39:14.140Z,18.63
2022-09-17T23:41:45.672Z,9.93
2022-09-17T23:44:16.487Z,11.80
2022-09-17T23:46:46.149Z,10.18
2022-09-17T23:49:16.188Z,11.90
2022-09-17T23:51:44.847Z,9.63
2022-09-17T23:54:13.465Z,9.68
2022-09-17T23:56:42.010Z,10.07
2022-09-17T23:59:11.631Z,8.98
